Aviation Digital Data Service (ADDS)

Output produced by TAFs form (2246 UTC 16 January 2018)
found at http://www.aviationweather.gov/adds/tafs/
 
KDAB 162153Z 02012KT 10SM FEW025 FEW250 14/11 A3031 RMK AO2 SLP264 T01440111
KDAB 161737Z 1618/1718 02009KT P6SM FEW030 
     FM170000 VRB03KT P6SM SCT250 
     FM171600 30010KT P6SM SCT040 SCT250